New Ulm, Minnesota
Current Conditions -  °F | °C
As of 5:14 PM on Tuesday 25 Nov 2014 (Local Time) from KULM Reporting Station
Scattered Clouds Scattered Clouds  
Wind Chill: 21°   Ceiling: Unl
Heat Index: 27°   Visibility: 10mi
Dew Point: 16°   Wind: 5mph
Humidity: 64%   Direction: 130°SE
Pressure: 29.97"   Gusts: NA
Location:  44.31°N, 94.46°W
Report Text: KULM 252314Z AUTO 13004KT 10SM SCT055 M03/M09 A2997 RMK AO2
Loading
Personal Weather Stations






























Interactive Weather Map New forecast layout! Learn more

10-Day Weather Forecast

Advertisements
Track Severe Weather on mobile